createdAt,value
2023-05-22T00:00:57.794Z,1013.17
2023-05-22T00:01:57.803Z,1013.16
2023-05-22T00:02:58.018Z,1013.12
2023-05-22T00:03:57.761Z,1013.12
2023-05-22T00:04:57.761Z,1013.17
2023-05-22T00:05:57.755Z,1013.16
2023-05-22T00:06:57.765Z,1013.09
2023-05-22T00:07:57.909Z,1013.10
2023-05-22T00:08:57.719Z,1013.08
2023-05-22T00:09:57.722Z,1013.12
2023-05-22T00:10:57.685Z,1013.10
2023-05-22T00:11:57.722Z,1013.06
2023-05-22T00:12:57.678Z,1013.05
2023-05-22T00:13:57.655Z,1013.09
2023-05-22T00:14:57.652Z,1013.08
2023-05-22T00:15:57.633Z,1013.03
2023-05-22T00:16:57.679Z,1013.06
2023-05-22T00:17:57.669Z,1013.05
2023-05-22T00:18:57.766Z,1013.03
2023-05-22T00:19:57.616Z,1013.03
2023-05-22T00:20:57.603Z,1013.04
2023-05-22T00:21:57.597Z,1013.05
2023-05-22T00:22:57.558Z,1013.01
2023-05-22T00:23:57.550Z,1013.03
2023-05-22T00:24:57.537Z,1013.00
2023-05-22T00:25:57.631Z,1012.97
2023-05-22T00:26:57.534Z,1012.99
2023-05-22T00:27:57.499Z,1013.01
2023-05-22T00:28:57.494Z,1012.97
2023-05-22T00:29:57.482Z,1012.97
2023-05-22T00:30:57.490Z,1012.94
2023-05-22T00:31:57.477Z,1012.94
2023-05-22T00:32:57.499Z,1012.93
2023-05-22T00:33:57.497Z,1012.92
2023-05-22T00:34:57.467Z,1012.96
2023-05-22T00:35:57.438Z,1012.98
2023-05-22T00:36:57.405Z,1012.94
2023-05-22T00:37:57.403Z,1012.92
2023-05-22T00:38:57.389Z,1012.94
2023-05-22T00:39:57.406Z,1012.94
2023-05-22T00:40:57.372Z,1012.95
2023-05-22T00:41:57.379Z,1012.93
2023-05-22T00:42:57.347Z,1012.93
2023-05-22T00:43:57.340Z,1012.93
2023-05-22T00:44:57.338Z,1012.91
2023-05-22T00:45:57.364Z,1012.90
2023-05-22T00:46:57.376Z,1012.87
2023-05-22T00:47:57.331Z,1012.90
2023-05-22T00:48:57.289Z,1012.88
2023-05-22T00:49:57.304Z,1012.88
2023-05-22T00:50:57.266Z,1012.83
2023-05-22T00:51:57.245Z,1012.87
2023-05-22T00:52:57.253Z,1012.92
2023-05-22T00:53:57.241Z,1012.85
2023-05-22T00:54:57.229Z,1012.87
2023-05-22T00:55:57.206Z,1012.89
2023-05-22T00:56:57.198Z,1012.84
2023-05-22T00:57:57.204Z,1012.86
2023-05-22T00:58:57.182Z,1012.88
2023-05-22T00:59:57.161Z,1012.90
2023-05-22T01:00:57.166Z,1012.85
2023-05-22T01:01:57.229Z,1012.88
2023-05-22T01:02:57.252Z,1012.86
2023-05-22T01:03:57.317Z,1012.87
2023-05-22T01:04:57.106Z,1012.84
2023-05-22T01:05:57.098Z,1012.82
2023-05-22T01:06:57.087Z,1012.83
2023-05-22T01:07:57.118Z,1012.82
2023-05-22T01:08:57.062Z,1012.81
2023-05-22T01:09:57.053Z,1012.78
2023-05-22T01:10:57.060Z,1012.81
2023-05-22T01:11:57.039Z,1012.79
2023-05-22T01:12:57.032Z,1012.78
2023-05-22T01:13:57.131Z,1012.78
2023-05-22T01:14:57.000Z,1012.79
2023-05-22T01:15:57.005Z,1012.80
2023-05-22T01:16:56.986Z,1012.77
2023-05-22T01:17:57.013Z,1012.78
2023-05-22T01:18:57.013Z,1012.78
2023-05-22T01:19:56.955Z,1012.73
2023-05-22T01:20:56.936Z,1012.76
2023-05-22T01:21:56.944Z,1012.74
2023-05-22T01:22:56.924Z,1012.77
2023-05-22T01:23:56.905Z,1012.74
2023-05-22T01:24:56.891Z,1012.75
2023-05-22T01:25:56.879Z,1012.72
2023-05-22T01:26:56.880Z,1012.71
2023-05-22T01:27:56.854Z,1012.73
2023-05-22T01:28:56.850Z,1012.74
2023-05-22T01:29:56.933Z,1012.74
2023-05-22T01:30:56.825Z,1012.71
2023-05-22T01:31:56.830Z,1012.70
2023-05-22T01:32:56.928Z,1012.68
2023-05-22T01:33:56.958Z,1012.70
2023-05-22T01:34:56.798Z,1012.74
2023-05-22T01:35:56.798Z,1012.67
2023-05-22T01:36:56.778Z,1012.70
2023-05-22T01:37:56.748Z,1012.68
2023-05-22T01:38:56.763Z,1012.75
2023-05-22T01:39:56.725Z,1012.72
2023-05-22T01:40:56.727Z,1012.74
2023-05-22T01:41:56.708Z,1012.75
2023-05-22T01:42:56.698Z,1012.73
2023-05-22T01:43:56.698Z,1012.65
2023-05-22T01:44:56.671Z,1012.69
2023-05-22T01:45:56.787Z,1012.67
2023-05-22T01:46:56.665Z,1012.69
2023-05-22T01:47:56.672Z,1012.64
2023-05-22T01:48:56.647Z,1012.67
2023-05-22T01:49:56.647Z,1012.71
2023-05-22T01:50:56.626Z,1012.65
2023-05-22T01:51:56.598Z,1012.68
2023-05-22T01:52:56.587Z,1012.69
2023-05-22T01:53:56.578Z,1012.65
2023-05-22T01:54:56.585Z,1012.65
2023-05-22T01:55:56.554Z,1012.67
2023-05-22T01:56:56.549Z,1012.68
2023-05-22T01:57:56.530Z,1012.71
2023-05-22T01:58:56.544Z,1012.68
2023-05-22T01:59:56.520Z,1012.69
2023-05-22T02:00:56.543Z,1012.69
2023-05-22T02:01:56.616Z,1012.71
2023-05-22T02:02:56.530Z,1012.69
2023-05-22T02:03:56.498Z,1012.68
2023-05-22T02:04:56.501Z,1012.69
2023-05-22T02:05:56.469Z,1012.70
2023-05-22T02:06:56.469Z,1012.72
2023-05-22T02:07:56.427Z,1012.72
2023-05-22T02:08:56.426Z,1012.68
2023-05-22T02:09:56.430Z,1012.64
2023-05-22T02:10:56.391Z,1012.65
2023-05-22T02:11:56.396Z,1012.66
2023-05-22T02:12:56.372Z,1012.66
2023-05-22T02:13:56.383Z,1012.66
2023-05-22T02:14:56.365Z,1012.68
2023-05-22T02:15:56.379Z,1012.67
2023-05-22T02:16:56.328Z,1012.65
2023-05-22T02:17:56.371Z,1012.63
2023-05-22T02:18:56.395Z,1012.61
2023-05-22T02:19:56.299Z,1012.63
2023-05-22T02:20:56.285Z,1012.65
2023-05-22T02:21:56.322Z,1012.66
2023-05-22T02:22:56.287Z,1012.66
2023-05-22T02:23:56.257Z,1012.66
2023-05-22T02:24:56.257Z,1012.66
2023-05-22T02:25:56.256Z,1012.66
2023-05-22T02:26:56.243Z,1012.63
2023-05-22T02:27:56.240Z,1012.63
2023-05-22T02:28:56.198Z,1012.66
2023-05-22T02:29:56.188Z,1012.60
2023-05-22T02:30:56.215Z,1012.65
2023-05-22T02:31:56.165Z,1012.64
2023-05-22T02:32:56.184Z,1012.62
2023-05-22T02:33:56.164Z,1012.66
2023-05-22T02:34:56.134Z,1012.62
2023-05-22T02:35:56.122Z,1012.65
2023-05-22T02:36:56.111Z,1012.66
2023-05-22T02:37:56.112Z,1012.65
2023-05-22T02:38:56.090Z,1012.64
2023-05-22T02:39:56.089Z,1012.61
2023-05-22T02:40:56.070Z,1012.61
2023-05-22T02:41:56.080Z,1012.64
2023-05-22T02:42:56.059Z,1012.62
2023-05-22T02:43:56.043Z,1012.61
2023-05-22T02:44:56.026Z,1012.64
2023-05-22T02:45:56.020Z,1012.63
2023-05-22T02:46:56.186Z,1012.61
2023-05-22T02:47:56.035Z,1012.62
2023-05-22T02:48:55.984Z,1012.64
2023-05-22T02:49:55.998Z,1012.63
2023-05-22T02:50:55.963Z,1012.65
2023-05-22T02:51:56.171Z,1012.61
2023-05-22T02:52:55.938Z,1012.60
2023-05-22T02:53:55.948Z,1012.60
2023-05-22T02:54:55.932Z,1012.62
2023-05-22T02:55:55.921Z,1012.62
2023-05-22T02:56:55.912Z,1012.58
2023-05-22T02:57:55.881Z,1012.60
2023-05-22T02:58:55.886Z,1012.59
2023-05-22T02:59:55.864Z,1012.55
2023-05-22T03:00:55.864Z,1012.54
2023-05-22T03:01:55.865Z,1012.53
2023-05-22T03:02:55.919Z,1012.51
2023-05-22T03:03:56.023Z,1012.52
2023-05-22T03:04:55.810Z,1012.49
2023-05-22T03:05:55.936Z,1012.48
2023-05-22T03:06:55.785Z,1012.49
2023-05-22T03:07:55.772Z,1012.49
2023-05-22T03:08:55.767Z,1012.47
2023-05-22T03:09:55.750Z,1012.47
2023-05-22T03:10:55.759Z,1012.47
2023-05-22T03:11:55.736Z,1012.45
2023-05-22T03:12:55.716Z,1012.42
2023-05-22T03:13:55.713Z,1012.42
2023-05-22T03:14:55.716Z,1012.44
2023-05-22T03:15:55.791Z,1012.41
2023-05-22T03:16:55.674Z,1012.42
2023-05-22T03:17:55.693Z,1012.35
2023-05-22T03:18:55.667Z,1012.35
2023-05-22T03:19:55.655Z,1012.34
2023-05-22T03:20:55.629Z,1012.38
2023-05-22T03:21:55.954Z,1012.36
2023-05-22T03:22:55.607Z,1012.37
2023-05-22T03:23:55.602Z,1012.32
2023-05-22T03:24:55.600Z,1012.37
2023-05-22T03:25:55.593Z,1012.37
2023-05-22T03:26:55.565Z,1012.36
2023-05-22T03:27:55.556Z,1012.31
2023-05-22T03:28:55.626Z,1012.30
2023-05-22T03:29:55.565Z,1012.33
2023-05-22T03:30:55.526Z,1012.34
2023-05-22T03:31:55.513Z,1012.33
2023-05-22T03:32:55.539Z,1012.30
2023-05-22T03:33:55.557Z,1012.33
2023-05-22T03:34:55.501Z,1012.31
2023-05-22T03:35:55.470Z,1012.31
2023-05-22T03:36:55.467Z,1012.31
2023-05-22T03:37:55.467Z,1012.34
2023-05-22T03:38:55.451Z,1012.37
2023-05-22T03:39:55.430Z,1012.31
2023-05-22T03:40:55.413Z,1012.36
2023-05-22T03:41:55.404Z,1012.35
2023-05-22T03:42:55.403Z,1012.34
2023-05-22T03:43:55.400Z,1012.35
2023-05-22T03:44:55.384Z,1012.35
2023-05-22T03:45:55.386Z,1012.34
2023-05-22T03:46:55.349Z,1012.39
2023-05-22T03:47:55.370Z,1012.38
2023-05-22T03:48:55.346Z,1012.40
2023-05-22T03:49:55.334Z,1012.38
2023-05-22T03:50:55.307Z,1012.40
2023-05-22T03:51:55.298Z,1012.35
2023-05-22T03:52:55.304Z,1012.38
2023-05-22T03:53:55.295Z,1012.38
2023-05-22T03:54:55.268Z,1012.43
2023-05-22T03:55:55.256Z,1012.41
2023-05-22T03:56:55.266Z,1012.40
2023-05-22T03:57:55.252Z,1012.41
2023-05-22T03:58:55.233Z,1012.36
2023-05-22T03:59:55.208Z,1012.38
2023-05-22T04:00:55.198Z,1012.30
2023-05-22T04:01:55.202Z,1012.30
2023-05-22T04:02:55.199Z,1012.33
2023-05-22T04:03:55.172Z,1012.32
2023-05-22T04:04:55.203Z,1012.31
2023-05-22T04:05:55.142Z,1012.31
2023-05-22T04:06:55.159Z,1012.34
2023-05-22T04:07:55.128Z,1012.32
2023-05-22T04:08:55.107Z,1012.29
2023-05-22T04:09:55.119Z,1012.30
2023-05-22T04:10:55.103Z,1012.32
2023-05-22T04:11:55.090Z,1012.30
2023-05-22T04:12:55.074Z,1012.29
2023-05-22T04:13:55.057Z,1012.25
2023-05-22T04:14:55.042Z,1012.27
2023-05-22T04:15:55.096Z,1012.30
2023-05-22T04:16:55.020Z,1012.30
2023-05-22T04:17:55.106Z,1012.30
2023-05-22T04:18:55.014Z,1012.29
2023-05-22T04:19:54.990Z,1012.29
2023-05-22T04:20:55.001Z,1012.29
2023-05-22T04:21:54.987Z,1012.29
2023-05-22T04:22:54.963Z,1012.28
2023-05-22T04:23:54.946Z,1012.30
2023-05-22T04:24:54.950Z,1012.33
2023-05-22T04:25:54.966Z,1012.36
2023-05-22T04:26:54.940Z,1012.32
2023-05-22T04:27:54.907Z,1012.28
2023-05-22T04:28:54.888Z,1012.32
2023-05-22T04:29:54.898Z,1012.35
2023-05-22T04:30:54.912Z,1012.33
2023-05-22T04:31:54.858Z,1012.35
2023-05-22T04:32:54.894Z,1012.34
2023-05-22T04:33:54.841Z,1012.37
2023-05-22T04:34:54.843Z,1012.34
2023-05-22T04:35:54.816Z,1012.34
2023-05-22T04:36:54.801Z,1012.35
2023-05-22T04:37:54.796Z,1012.31
2023-05-22T04:38:54.793Z,1012.35
2023-05-22T04:39:54.787Z,1012.34
2023-05-22T04:40:54.761Z,1012.37
2023-05-22T04:41:54.781Z,1012.33
2023-05-22T04:42:54.746Z,1012.38
2023-05-22T04:43:54.750Z,1012.40
2023-05-22T04:44:54.740Z,1012.39
2023-05-22T04:45:54.738Z,1012.31
2023-05-22T04:46:54.743Z,1012.38
2023-05-22T04:47:54.730Z,1012.36
2023-05-22T04:48:54.699Z,1012.36
2023-05-22T04:49:54.669Z,1012.32
2023-05-22T04:50:54.653Z,1012.38
2023-05-22T04:51:54.646Z,1012.30
2023-05-22T04:52:54.628Z,1012.32
2023-05-22T04:53:54.638Z,1012.36
2023-05-22T04:54:54.616Z,1012.33
2023-05-22T04:55:54.616Z,1012.35
2023-05-22T04:56:54.588Z,1012.33
2023-05-22T04:57:54.657Z,1012.31
2023-05-22T04:58:54.586Z,1012.36
2023-05-22T04:59:54.566Z,1012.31
2023-05-22T05:00:54.575Z,1012.34
2023-05-22T05:01:54.539Z,1012.40
2023-05-22T05:02:54.578Z,1012.36
2023-05-22T05:03:54.552Z,1012.41
2023-05-22T05:04:54.509Z,1012.37
2023-05-22T05:05:54.493Z,1012.34
2023-05-22T05:06:54.486Z,1012.33
2023-05-22T05:07:54.483Z,1012.35
2023-05-22T05:08:54.458Z,1012.35
2023-05-22T05:09:54.449Z,1012.33
2023-05-22T05:10:54.442Z,1012.33
2023-05-22T05:11:54.427Z,1012.33
2023-05-22T05:12:54.429Z,1012.33
2023-05-22T05:13:54.548Z,1012.39
2023-05-22T05:14:54.393Z,1012.35
2023-05-22T05:15:54.388Z,1012.32
2023-05-22T05:16:54.461Z,1012.34
2023-05-22T05:17:54.403Z,1012.30
2023-05-22T05:18:54.380Z,1012.30
2023-05-22T05:19:54.359Z,1012.32
2023-05-22T05:20:54.333Z,1012.28
2023-05-22T05:21:54.349Z,1012.33
2023-05-22T05:22:54.311Z,1012.30
2023-05-22T05:23:54.300Z,1012.35
2023-05-22T05:24:54.287Z,1012.36
2023-05-22T05:25:54.313Z,1012.35
2023-05-22T05:26:54.286Z,1012.37
2023-05-22T05:27:54.258Z,1012.36
2023-05-22T05:28:54.264Z,1012.43
2023-05-22T05:29:54.249Z,1012.47
2023-05-22T05:30:54.238Z,1012.43
2023-05-22T05:31:54.253Z,1012.39
2023-05-22T05:32:54.230Z,1012.42
2023-05-22T05:33:54.195Z,1012.36
2023-05-22T05:34:54.181Z,1012.39
2023-05-22T05:35:54.188Z,1012.39
2023-05-22T05:36:54.158Z,1012.39
2023-05-22T05:37:54.172Z,1012.43
2023-05-22T05:38:54.149Z,1012.44
2023-05-22T05:39:54.160Z,1012.42
2023-05-22T05:40:54.126Z,1012.48
2023-05-22T05:41:54.119Z,1012.45
2023-05-22T05:42:54.097Z,1012.46
2023-05-22T05:43:54.087Z,1012.45
2023-05-22T05:44:54.105Z,1012.49
2023-05-22T05:45:54.102Z,1012.50
2023-05-22T05:46:54.076Z,1012.49
2023-05-22T05:47:54.102Z,1012.48
2023-05-22T05:48:54.031Z,1012.50
2023-05-22T05:49:54.055Z,1012.51
2023-05-22T05:50:54.017Z,1012.50
2023-05-22T05:51:54.007Z,1012.50
2023-05-22T05:52:54.004Z,1012.43
2023-05-22T05:53:53.982Z,1012.44
2023-05-22T05:54:53.996Z,1012.48
2023-05-22T05:55:53.958Z,1012.48
2023-05-22T05:56:53.950Z,1012.50
2023-05-22T05:57:53.951Z,1012.49
2023-05-22T05:58:53.958Z,1012.49
2023-05-22T05:59:53.936Z,1012.43
2023-05-22T06:00:53.907Z,1012.48
2023-05-22T06:01:53.911Z,1012.46
2023-05-22T06:02:53.960Z,1012.47
2023-05-22T06:03:54.185Z,1012.47
2023-05-22T06:04:53.880Z,1012.47
2023-05-22T06:05:53.955Z,1012.47
2023-05-22T06:06:53.850Z,1012.46
2023-05-22T06:07:53.832Z,1012.48
2023-05-22T06:08:53.839Z,1012.45
2023-05-22T06:09:53.811Z,1012.45
2023-05-22T06:10:53.807Z,1012.44
2023-05-22T06:11:53.794Z,1012.48
2023-05-22T06:12:53.804Z,1012.47
2023-05-22T06:13:53.791Z,1012.46
2023-05-22T06:14:53.761Z,1012.53
2023-05-22T06:15:53.788Z,1012.51
2023-05-22T06:16:53.780Z,1012.45
2023-05-22T06:17:53.806Z,1012.60
2023-05-22T06:18:53.745Z,1012.43
2023-05-22T06:19:53.701Z,1012.44
2023-05-22T06:20:53.715Z,1012.49
2023-05-22T06:21:53.683Z,1012.42
2023-05-22T06:22:53.690Z,1012.43
2023-05-22T06:23:53.709Z,1012.42
2023-05-22T06:24:53.665Z,1012.43
2023-05-22T06:25:53.643Z,1012.46
2023-05-22T06:26:53.660Z,1012.41
2023-05-22T06:27:53.692Z,1012.43
2023-05-22T06:28:53.608Z,1012.37
2023-05-22T06:29:53.601Z,1012.38
2023-05-22T06:30:53.587Z,1012.37
2023-05-22T06:31:53.597Z,1012.35
2023-05-22T06:32:53.641Z,1012.37
2023-05-22T06:33:53.662Z,1012.37
2023-05-22T06:34:53.580Z,1012.38
2023-05-22T06:35:53.546Z,1012.40
2023-05-22T06:36:53.542Z,1012.44
2023-05-22T06:37:53.520Z,1012.39
2023-05-22T06:38:53.556Z,1012.43
2023-05-22T06:39:53.504Z,1012.40
2023-05-22T06:40:53.494Z,1012.40
2023-05-22T06:41:53.496Z,1012.39
2023-05-22T06:42:53.464Z,1012.39
2023-05-22T06:43:53.457Z,1012.38
2023-05-22T06:44:53.441Z,1012.38
2023-05-22T06:45:53.471Z,1012.36
2023-05-22T06:46:53.430Z,1012.37
2023-05-22T06:47:53.448Z,1012.37
2023-05-22T06:48:53.398Z,1012.39
2023-05-22T06:49:53.412Z,1012.34
2023-05-22T06:50:53.400Z,1012.38
2023-05-22T06:51:53.368Z,1012.39
2023-05-22T06:52:53.355Z,1012.39
2023-05-22T06:53:53.351Z,1012.42
2023-05-22T06:54:53.349Z,1012.32
2023-05-22T06:55:53.339Z,1012.36
2023-05-22T06:56:53.319Z,1012.37
2023-05-22T06:57:53.300Z,1012.39
2023-05-22T06:58:53.301Z,1012.29
2023-05-22T06:59:53.314Z,1012.32
2023-05-22T07:00:53.291Z,1012.27
2023-05-22T07:01:53.257Z,1012.30
2023-05-22T07:02:53.338Z,1012.33
2023-05-22T07:03:53.230Z,1012.33
2023-05-22T07:04:53.260Z,1012.31
2023-05-22T07:05:53.286Z,1012.32
2023-05-22T07:06:53.209Z,1012.30
2023-05-22T07:07:53.194Z,1012.27
2023-05-22T07:08:53.184Z,1012.37
2023-05-22T07:09:53.236Z,1012.28
2023-05-22T07:10:53.157Z,1012.34
2023-05-22T07:11:53.149Z,1012.29
2023-05-22T07:12:53.136Z,1012.31
2023-05-22T07:13:53.132Z,1012.34
2023-05-22T07:14:53.143Z,1012.33
2023-05-22T07:15:53.106Z,1012.30
2023-05-22T07:16:53.164Z,1012.29
2023-05-22T07:17:53.149Z,1012.24
2023-05-22T07:18:53.208Z,1012.34
2023-05-22T07:19:53.064Z,1012.34
2023-05-22T07:20:53.053Z,1012.32
2023-05-22T07:21:53.059Z,1012.32
2023-05-22T07:22:53.041Z,1012.29
2023-05-22T07:23:53.061Z,1012.34
2023-05-22T07:24:53.011Z,1012.40
2023-05-22T07:25:52.997Z,1012.36
2023-05-22T07:26:52.983Z,1012.34
2023-05-22T07:27:53.003Z,1012.35
2023-05-22T07:28:52.980Z,1012.38
2023-05-22T07:29:52.950Z,1012.31
2023-05-22T07:30:52.948Z,1012.33
2023-05-22T07:31:53.008Z,1012.30
2023-05-22T07:32:53.014Z,1012.40
2023-05-22T07:33:52.911Z,1012.34
2023-05-22T07:34:52.916Z,1012.33
2023-05-22T07:35:52.900Z,1012.32
2023-05-22T07:36:52.878Z,1012.28
2023-05-22T07:37:52.982Z,1012.28
2023-05-22T07:38:52.856Z,1012.27
2023-05-22T07:39:52.860Z,1012.27
2023-05-22T07:40:52.833Z,1012.31
2023-05-22T07:41:54.461Z,1012.30
2023-05-22T07:42:52.855Z,1012.26
2023-05-22T07:43:52.804Z,1012.29
2023-05-22T07:44:52.809Z,1012.22
2023-05-22T07:45:52.825Z,1012.21
2023-05-22T07:46:52.803Z,1012.26
2023-05-22T07:47:54.180Z,1012.28
2023-05-22T07:48:52.750Z,1012.26
2023-05-22T07:49:52.789Z,1012.25
2023-05-22T07:50:52.728Z,1012.23
2023-05-22T07:51:52.730Z,1012.19
2023-05-22T07:52:52.708Z,1012.23
2023-05-22T07:53:52.752Z,1012.27
2023-05-22T07:54:52.685Z,1012.19
2023-05-22T07:55:52.682Z,1012.20
2023-05-22T07:56:52.679Z,1012.24
2023-05-22T07:57:52.657Z,1012.19
2023-05-22T07:58:52.646Z,1012.24
2023-05-22T07:59:52.639Z,1012.16
2023-05-22T08:00:52.649Z,1012.28
2023-05-22T08:01:52.614Z,1012.24
2023-05-22T08:02:52.775Z,1012.26
2023-05-22T08:03:52.962Z,1012.27
2023-05-22T08:04:52.709Z,1012.25
2023-05-22T08:05:52.584Z,1012.29
2023-05-22T08:06:52.559Z,1012.22
2023-05-22T08:07:52.554Z,1012.27
2023-05-22T08:08:52.542Z,1012.28
2023-05-22T08:09:52.594Z,1012.28
2023-05-22T08:11:53.518Z,1012.28
2023-05-22T08:12:52.498Z,1012.34
2023-05-22T08:13:52.497Z,1012.25
2023-05-22T08:14:52.496Z,1012.22
2023-05-22T08:16:00.582Z,1012.20
2023-05-22T08:16:53.501Z,1012.27
2023-05-22T08:17:52.473Z,1012.16
2023-05-22T08:18:52.458Z,1012.17
2023-05-22T08:19:52.545Z,1012.16
2023-05-22T08:20:54.373Z,1012.19
2023-05-22T08:21:52.397Z,1012.26
2023-05-22T08:22:52.390Z,1012.24
2023-05-22T08:23:52.395Z,1012.18
2023-05-22T08:24:52.393Z,1012.14
2023-05-22T08:25:52.392Z,1012.13
2023-05-22T08:26:52.352Z,1012.12
2023-05-22T08:27:52.385Z,1012.22
2023-05-22T08:28:52.358Z,1012.19
2023-05-22T08:29:52.318Z,1012.10
2023-05-22T08:30:52.307Z,1012.09
2023-05-22T08:31:52.365Z,1012.15
2023-05-22T08:32:52.324Z,1012.09
2023-05-22T08:33:52.293Z,1012.11
2023-05-22T08:34:52.264Z,1012.05
2023-05-22T08:35:52.303Z,1012.00
2023-05-22T08:36:52.255Z,1012.04
2023-05-22T08:37:52.248Z,1012.00
2023-05-22T08:38:52.245Z,1012.04
2023-05-22T08:39:52.234Z,1012.09
2023-05-22T08:40:52.219Z,1012.05
2023-05-22T08:41:52.684Z,1012.02
2023-05-22T08:42:52.252Z,1012.05
2023-05-22T08:43:52.185Z,1012.01
2023-05-22T08:44:52.161Z,1011.99
2023-05-22T08:45:52.147Z,1012.01
2023-05-22T08:46:52.178Z,1012.02
2023-05-22T08:47:52.161Z,1012.05
2023-05-22T08:48:52.150Z,1012.10
2023-05-22T08:49:52.121Z,1012.02
2023-05-22T08:50:52.144Z,1012.10
2023-05-22T08:51:52.110Z,1011.97
2023-05-22T08:52:52.106Z,1011.99
2023-05-22T08:53:52.066Z,1012.10
2023-05-22T08:54:52.060Z,1012.05
2023-05-22T08:55:52.051Z,1012.00
2023-05-22T08:56:56.784Z,1011.98
2023-05-22T08:57:53.123Z,1011.98
2023-05-22T08:58:52.016Z,1011.93
2023-05-22T08:59:52.006Z,1011.93
2023-05-22T09:00:52.010Z,1011.87
2023-05-22T09:01:52.023Z,1011.85
2023-05-22T09:02:52.022Z,1011.92
2023-05-22T09:03:52.025Z,1011.89
2023-05-22T09:04:51.985Z,1011.72
2023-05-22T09:05:51.954Z,1011.93
2023-05-22T09:06:51.966Z,1011.78
2023-05-22T09:07:51.921Z,1011.80
2023-05-22T09:08:51.920Z,1011.83
2023-05-22T09:09:51.911Z,1011.78
2023-05-22T09:10:51.916Z,1011.74
2023-05-22T09:11:51.891Z,1011.75
2023-05-22T09:12:51.881Z,1011.91
2023-05-22T09:13:52.010Z,1011.84
2023-05-22T09:14:53.349Z,1011.78
2023-05-22T09:15:51.859Z,1011.81
2023-05-22T09:16:51.914Z,1011.79
2023-05-22T09:17:51.859Z,1011.81
2023-05-22T09:18:51.878Z,1011.86
2023-05-22T09:19:51.816Z,1011.90
2023-05-22T09:20:51.806Z,1011.72
2023-05-22T09:21:51.780Z,1011.82
2023-05-22T09:22:51.768Z,1011.78
2023-05-22T09:23:51.762Z,1011.73
2023-05-22T09:24:51.756Z,1011.73
2023-05-22T09:25:51.743Z,1011.71
2023-05-22T09:26:51.727Z,1011.70
2023-05-22T09:27:51.712Z,1011.73
2023-05-22T09:28:51.706Z,1011.67
2023-05-22T09:29:51.784Z,1011.70
2023-05-22T09:30:51.769Z,1011.69
2023-05-22T09:31:51.732Z,1011.74
2023-05-22T09:32:51.739Z,1011.67
2023-05-22T09:33:51.659Z,1011.67
2023-05-22T09:34:51.670Z,1011.68
2023-05-22T09:35:51.637Z,1011.65
2023-05-22T09:36:51.649Z,1011.63
2023-05-22T09:37:51.610Z,1011.70
2023-05-22T09:38:51.614Z,1011.70
2023-05-22T09:39:51.654Z,1011.67
2023-05-22T09:40:51.615Z,1011.65
2023-05-22T09:41:51.567Z,1011.64
2023-05-22T09:42:51.564Z,1011.61
2023-05-22T09:43:51.563Z,1011.57
2023-05-22T09:44:51.554Z,1011.61
2023-05-22T09:45:51.582Z,1011.66
2023-05-22T09:46:51.693Z,1011.64
2023-05-22T09:47:51.582Z,1011.64
2023-05-22T09:48:51.510Z,1011.65
2023-05-22T09:49:51.506Z,1011.58
2023-05-22T09:50:51.478Z,1011.65
2023-05-22T09:51:51.466Z,1011.62
2023-05-22T09:52:51.464Z,1011.67
2023-05-22T09:53:51.447Z,1011.61
2023-05-22T09:54:51.441Z,1011.59
2023-05-22T09:55:51.422Z,1011.58
2023-05-22T09:56:51.782Z,1011.59
2023-05-22T09:57:51.410Z,1011.52
2023-05-22T09:58:51.393Z,1011.55
2023-05-22T09:59:51.382Z,1011.52
2023-05-22T10:00:51.373Z,1011.49
2023-05-22T10:01:51.518Z,1011.53
2023-05-22T10:02:51.435Z,1011.46
2023-05-22T10:03:51.384Z,1011.48
2023-05-22T10:04:51.381Z,1011.59
2023-05-22T10:05:51.334Z,1011.50
2023-05-22T10:06:51.344Z,1011.53
2023-05-22T10:07:51.308Z,1011.54
2023-05-22T10:08:51.299Z,1011.53
2023-05-22T10:09:51.302Z,1011.54
2023-05-22T10:10:51.269Z,1011.50
2023-05-22T10:11:51.276Z,1011.50
2023-05-22T10:12:51.271Z,1011.46
2023-05-22T10:13:51.236Z,1011.44
2023-05-22T10:14:51.226Z,1011.48
2023-05-22T10:15:51.275Z,1011.51
2023-05-22T10:16:51.213Z,1011.56
2023-05-22T10:17:51.359Z,1011.47
2023-05-22T10:18:51.231Z,1011.47
2023-05-22T10:19:51.217Z,1011.50
2023-05-22T10:20:51.177Z,1011.44
2023-05-22T10:21:51.148Z,1011.41
2023-05-22T10:22:51.145Z,1011.43
2023-05-22T10:23:51.142Z,1011.44
2023-05-22T10:24:51.134Z,1011.37
2023-05-22T10:25:51.123Z,1011.38
2023-05-22T10:26:51.101Z,1011.40
2023-05-22T10:27:51.088Z,1011.37
2023-05-22T10:28:51.074Z,1011.32
2023-05-22T10:29:51.100Z,1011.24
2023-05-22T10:30:51.073Z,1011.37
2023-05-22T10:31:51.066Z,1011.27
2023-05-22T10:32:51.091Z,1011.31
2023-05-22T10:33:51.172Z,1011.40
2023-05-22T10:34:51.038Z,1011.35
2023-05-22T10:35:51.008Z,1011.42
2023-05-22T10:36:50.997Z,1011.36
2023-05-22T10:37:51.059Z,1011.36
2023-05-22T10:38:50.972Z,1011.30
2023-05-22T10:39:50.982Z,1011.26
2023-05-22T10:40:50.962Z,1011.26
2023-05-22T10:41:50.938Z,1011.27
2023-05-22T10:42:50.929Z,1011.21
2023-05-22T10:43:50.958Z,1011.30
2023-05-22T10:44:50.927Z,1011.19
2023-05-22T10:45:50.972Z,1011.22
2023-05-22T10:46:50.899Z,1011.16
2023-05-22T10:47:50.898Z,1011.18
2023-05-22T10:48:50.893Z,1011.24
2023-05-22T10:49:50.973Z,1011.21
2023-05-22T10:50:50.891Z,1011.19
2023-05-22T10:51:50.850Z,1011.14
2023-05-22T10:52:50.824Z,1011.13
2023-05-22T10:53:50.827Z,1011.13
2023-05-22T10:54:50.811Z,1011.09
2023-05-22T10:55:50.796Z,1011.09
2023-05-22T10:56:50.791Z,1011.09
2023-05-22T10:57:50.784Z,1011.08
2023-05-22T10:58:50.794Z,1011.13
2023-05-22T10:59:50.784Z,1011.08
2023-05-22T11:00:50.751Z,1011.02
2023-05-22T11:01:50.791Z,1011.07
2023-05-22T11:02:50.746Z,1011.03
2023-05-22T11:03:50.739Z,1010.96
2023-05-22T11:04:50.852Z,1010.92
2023-05-22T11:05:50.970Z,1010.99
2023-05-22T11:06:50.693Z,1010.97
2023-05-22T11:07:50.718Z,1010.96
2023-05-22T11:08:50.661Z,1011.07
2023-05-22T11:09:50.652Z,1011.02
2023-05-22T11:10:50.689Z,1010.99
2023-05-22T11:11:50.713Z,1010.93
2023-05-22T11:12:50.635Z,1011.00
2023-05-22T11:13:50.604Z,1010.95
2023-05-22T11:14:50.601Z,1010.94
2023-05-22T11:15:50.603Z,1010.94
2023-05-22T11:16:50.605Z,1010.92
2023-05-22T11:17:50.597Z,1010.99
2023-05-22T11:18:50.575Z,1010.94
2023-05-22T11:19:50.621Z,1010.90
2023-05-22T11:20:50.529Z,1010.92
2023-05-22T11:21:50.649Z,1010.91
2023-05-22T11:22:50.509Z,1010.93
2023-05-22T11:23:50.522Z,1010.88
2023-05-22T11:24:50.487Z,1010.89
2023-05-22T11:25:50.477Z,1010.89
2023-05-22T11:26:50.469Z,1010.84
2023-05-22T11:27:50.502Z,1010.93
2023-05-22T11:28:50.467Z,1010.85
2023-05-22T11:29:50.438Z,1010.90
2023-05-22T11:30:50.490Z,1010.87
2023-05-22T11:31:50.410Z,1010.84
2023-05-22T11:32:50.461Z,1010.81
2023-05-22T11:33:50.393Z,1010.82
2023-05-22T11:34:50.391Z,1010.82
2023-05-22T11:35:50.369Z,1010.80
2023-05-22T11:36:50.367Z,1010.75
2023-05-22T11:37:50.511Z,1010.85
2023-05-22T11:38:50.337Z,1010.76
2023-05-22T11:39:50.336Z,1010.79
2023-05-22T11:40:50.328Z,1010.74
2023-05-22T11:41:50.306Z,1010.76
2023-05-22T11:42:50.294Z,1010.83
2023-05-22T11:43:50.289Z,1010.77
2023-05-22T11:44:50.317Z,1010.76
2023-05-22T11:45:50.273Z,1010.76
2023-05-22T11:46:50.370Z,1010.67
2023-05-22T11:47:50.293Z,1010.77
2023-05-22T11:48:50.238Z,1010.87
2023-05-22T11:49:50.270Z,1010.69
2023-05-22T11:50:50.209Z,1010.70
2023-05-22T11:51:50.199Z,1010.71
2023-05-22T11:52:50.184Z,1010.68
2023-05-22T11:53:50.231Z,1010.69
2023-05-22T11:54:50.162Z,1010.67
2023-05-22T11:55:50.173Z,1010.71
2023-05-22T11:56:50.193Z,1010.69
2023-05-22T11:57:50.135Z,1010.65
2023-05-22T11:58:50.123Z,1010.64
2023-05-22T11:59:50.111Z,1010.62
2023-05-22T12:00:50.187Z,1010.64
2023-05-22T12:01:50.113Z,1010.59
2023-05-22T12:02:50.207Z,1010.60
2023-05-22T12:03:50.170Z,1010.59
2023-05-22T12:04:50.053Z,1010.64
2023-05-22T12:05:50.042Z,1010.59
2023-05-22T12:06:50.176Z,1010.64